Time;durP1;ratioP1;P1;durP2;ratioP2;P2;SDS_P1;SDS_P2;PMS_P1;PMS_P2;Temp;Humidity;BMP_temperature;BMP_pressure;BME280_temperature;BME280_humidity;BME280_pressure;Samples;Min_cycle;Max_cycle;Signal;HPM_P1;HPM_P2
2023/06/03 00:02:15;;;;;;;3.70;2.20;;;20.10;51.00;19.30;96432.00;;;;6105937;23;20488;-81
2023/06/03 00:04:43;;;;;;;2.27;2.07;;;20.00;51.00;19.20;96424.00;;;;6107487;23;20214;-82
2023/06/03 00:07:11;;;;;;;3.20;2.27;;;20.00;51.20;19.20;96425.00;;;;6136441;23;20179;-82
2023/06/03 00:09:39;;;;;;;2.67;2.10;;;20.00;51.30;19.20;96425.00;;;;6110468;23;20190;-81
2023/06/03 00:12:07;;;;;;;2.40;2.20;;;20.00;51.30;19.20;96430.00;;;;6139182;23;20255;-81
2023/06/03 00:14:35;;;;;;;1.90;1.80;;;20.00;51.30;19.20;96428.00;;;;6138403;23;20233;-82
2023/06/03 00:17:02;;;;;;;3.30;2.17;;;19.90;51.30;19.10;96426.00;;;;6111851;23;20186;-81
2023/06/03 00:19:29;;;;;;;2.73;2.17;;;19.90;51.40;19.10;96435.00;;;;6140367;23;20673;-82
2023/06/03 00:22:00;;;;;;;2.80;2.27;;;19.90;51.40;19.10;96427.00;;;;6140537;23;20275;-80
2023/06/03 00:24:29;;;;;;;2.50;2.10;;;19.90;51.50;19.10;96428.00;;;;6139198;23;20191;-81
2023/06/03 00:26:56;;;;;;;2.87;1.93;;;19.90;51.50;19.00;96424.00;;;;6115061;23;20186;-82
2023/06/03 00:29:23;;;;;;;2.97;2.10;;;19.80;51.50;19.00;96424.00;;;;6139450;23;20171;-81
2023/06/03 00:31:51;;;;;;;2.27;2.07;;;19.80;51.60;19.00;96433.00;;;;6140285;23;20230;-81
2023/06/03 00:34:19;;;;;;;2.30;2.10;;;19.80;51.60;19.00;96434.00;;;;6113713;23;20213;-82
2023/06/03 00:36:47;;;;;;;3.17;1.97;;;19.80;51.70;18.90;96431.00;;;;6116063;23;20182;-80
2023/06/03 00:39:14;;;;;;;3.60;2.37;;;19.80;51.70;18.90;96432.00;;;;6141322;23;20199;-80
2023/06/03 00:41:43;;;;;;;3.10;2.20;;;19.70;51.70;18.90;96434.00;;;;6144095;23;20179;-82
2023/06/03 00:44:10;;;;;;;4.53;2.23;;;19.70;51.80;18.90;96432.00;;;;6145420;23;20681;-81
2023/06/03 00:46:38;;;;;;;2.77;2.13;;;19.70;51.80;18.90;96429.00;;;;6119887;23;20167;-81
2023/06/03 00:49:06;;;;;;;2.27;2.00;;;19.70;51.80;18.80;96433.00;;;;6147528;23;20513;-82
2023/06/03 00:51:36;;;;;;;2.67;2.47;;;19.60;51.80;18.80;96430.00;;;;6099815;23;20199;-81
2023/06/03 00:54:04;;;;;;;5.20;3.03;;;19.60;51.80;18.80;96432.00;;;;6123090;23;20197;-82
2023/06/03 00:56:41;;;;;;;3.60;2.33;;;19.60;51.90;18.70;96429.00;;;;6148418;23;20170;-82
2023/06/03 00:59:12;;;;;;;4.00;2.30;;;19.60;51.90;18.70;96428.00;;;;6101389;23;20162;-81
2023/06/03 01:01:42;;;;;;;3.63;2.13;;;19.60;51.90;18.70;96430.00;;;;6142830;23;20668;-82
2023/06/03 01:04:10;;;;;;;2.70;2.00;;;19.50;51.90;18.60;96428.00;;;;6133571;23;20194;-82
2023/06/03 01:06:52;;;;;;;4.10;2.50;;;19.50;52.00;18.60;96436.00;;;;6133066;23;20175;-81
2023/06/03 01:09:32;;;;;;;4.53;2.07;;;19.50;52.10;18.60;96434.00;;;;6133709;23;20174;-82
2023/06/03 01:12:16;;;;;;;3.87;1.93;;;19.40;52.20;18.50;96439.00;;;;6106379;23;20224;-82
2023/06/03 01:14:54;;;;;;;2.20;1.70;;;19.40;52.30;18.50;96423.00;;;;6105040;23;20675;-82
2023/06/03 01:17:27;;;;;;;4.03;2.23;;;19.40;52.40;18.50;96422.00;;;;6130210;23;20604;-81
2023/06/03 01:19:58;;;;;;;3.10;2.07;;;19.40;52.40;18.40;96425.00;;;;6108059;23;20174;-81
2023/06/03 01:22:28;;;;;;;2.63;2.00;;;19.30;52.30;18.40;96422.00;;;;6136622;23;20162;-82
2023/06/03 01:25:15;;;;;;;2.50;2.10;;;19.30;52.30;18.40;96427.00;;;;6085393;23;20225;-81
2023/06/03 01:27:48;;;;;;;3.03;2.33;;;19.30;52.60;18.40;96429.00;;;;6133830;23;20234;-82
2023/06/03 01:30:20;;;;;;;3.33;2.07;;;19.30;52.30;18.30;96431.00;;;;6135420;23;20662;-81
2023/06/03 01:32:50;;;;;;;4.73;2.60;;;19.20;52.30;18.30;96422.00;;;;6135300;23;20183;-82
2023/06/03 01:35:20;;;;;;;2.70;2.20;;;19.20;52.40;18.30;96422.00;;;;6136367;23;20174;-82
2023/06/03 01:37:48;;;;;;;3.50;2.00;;;19.10;52.40;18.30;96424.00;;;;6131563;23;20175;-82
2023/06/03 01:40:17;;;;;;;3.17;2.07;;;19.10;52.50;18.20;96410.00;;;;6135709;23;20181;-82
2023/06/03 01:42:45;;;;;;;4.37;2.03;;;19.10;52.60;18.20;96414.00;;;;6138157;23;20665;-82
2023/06/03 01:45:12;;;;;;;3.50;2.17;;;19.10;52.60;18.20;96413.00;;;;6087262;23;20194;-82
2023/06/03 01:47:40;;;;;;;2.40;2.20;;;19.00;52.70;18.10;96406.00;;;;6137611;23;20654;-82
2023/06/03 01:50:08;;;;;;;2.40;1.87;;;19.00;52.50;18.10;96414.00;;;;6137933;23;20229;-82
2023/06/03 01:52:36;;;;;;;2.37;2.00;;;19.00;52.60;18.10;96413.00;;;;6112128;23;20199;-82
2023/06/03 01:55:04;;;;;;;4.70;1.90;;;19.00;52.70;18.10;96413.00;;;;6087840;23;20194;-82
2023/06/03 01:57:33;;;;;;;3.30;2.07;;;18.90;52.60;18.00;96420.00;;;;6135427;23;20186;-82
2023/06/03 02:00:00;;;;;;;2.53;2.23;;;18.90;52.80;18.00;96426.00;;;;6133712;23;20185;-82
2023/06/03 02:02:27;;;;;;;2.70;2.00;;;18.90;52.80;18.00;96411.00;;;;6133870;23;20213;-81
2023/06/03 02:04:56;;;;;;;3.33;1.83;;;18.90;52.90;18.00;96417.00;;;;6134089;23;20199;-81
2023/06/03 02:07:25;;;;;;;2.77;2.30;;;18.80;52.90;17.90;96422.00;;;;6108590;23;20159;-82
2023/06/03 02:09:53;;;;;;;2.43;2.23;;;18.80;52.90;17.90;96408.00;;;;6132524;23;20171;-82
2023/06/03 02:12:20;;;;;;;3.00;2.07;;;18.80;52.80;17.90;96413.00;;;;6107480;23;20277;-81
2023/06/03 02:14:53;;;;;;;5.60;2.27;;;18.80;52.80;17.80;96409.00;;;;6108394;23;20273;-82
2023/06/03 02:17:22;;;;;;;2.70;1.97;;;18.70;52.80;17.80;96411.00;;;;6135655;23;20163;-82
2023/06/03 02:19:50;;;;;;;3.23;1.93;;;18.70;52.70;17.80;96409.00;;;;6060048;23;20523;-82
2023/06/03 02:22:17;;;;;;;4.00;2.00;;;18.70;52.90;17.80;96410.00;;;;6105670;23;20210;-82
2023/06/03 02:24:46;;;;;;;3.17;1.90;;;18.70;52.90;17.70;96417.00;;;;6105981;23;20194;-82
2023/06/03 02:27:14;;;;;;;2.53;1.70;;;18.60;52.90;17.70;96406.00;;;;6133495;23;20166;-81
2023/06/03 02:29:44;;;;;;;3.67;2.07;;;18.60;53.10;17.70;96412.00;;;;6134457;23;20167;-82
2023/06/03 02:32:13;;;;;;;3.57;1.70;;;18.60;53.20;17.70;96407.00;;;;6135462;23;20198;-81
2023/06/03 02:34:40;;;;;;;4.57;2.37;;;18.60;53.20;17.60;96402.00;;;;6110745;23;20246;-82
2023/06/03 02:37:08;;;;;;;3.23;2.20;;;18.50;53.20;17.60;96413.00;;;;6138932;23;20206;-82
2023/06/03 02:39:35;;;;;;;3.33;2.20;;;18.50;53.20;17.60;96407.00;;;;6088497;23;20175;-81
2023/06/03 02:42:03;;;;;;;2.67;1.93;;;18.50;53.30;17.60;96407.00;;;;6112774;23;20181;-81
2023/06/03 02:44:31;;;;;;;3.43;2.17;;;18.50;53.40;17.50;96409.00;;;;6140187;23;20198;-82
2023/06/03 02:46:58;;;;;;;2.93;1.80;;;18.40;53.40;17.50;96413.00;;;;6139459;23;20564;-82
2023/06/03 02:49:26;;;;;;;2.73;1.87;;;18.40;53.40;17.50;96416.00;;;;6091479;23;20197;-82
2023/06/03 02:51:55;;;;;;;2.97;1.80;;;18.40;53.50;17.40;96410.00;;;;6114928;23;20171;-82
2023/06/03 02:54:23;;;;;;;3.13;2.33;;;18.40;53.50;17.40;96413.00;;;;6116820;23;20213;-82
2023/06/03 02:56:50;;;;;;;2.20;1.97;;;18.40;53.50;17.40;96413.00;;;;6142065;23;20194;-82
2023/06/03 02:59:18;;;;;;;3.13;2.00;;;18.30;54.10;17.40;96414.00;;;;6142996;23;20167;-80
2023/06/03 03:01:45;;;;;;;2.10;1.77;;;18.30;53.60;17.40;96413.00;;;;6143750;23;20502;-81
2023/06/03 03:04:12;;;;;;;5.47;2.40;;;18.30;53.70;17.30;96407.00;;;;6144052;23;20529;-81
2023/06/03 03:06:44;;;;;;;3.57;2.00;;;18.30;53.80;17.30;96417.00;;;;6144479;23;20182;-82
2023/06/03 03:09:11;;;;;;;4.57;2.07;;;18.30;53.90;17.30;96412.00;;;;6146050;23;20159;-80
2023/06/03 03:11:39;;;;;;;2.40;2.10;;;18.20;53.80;17.30;96413.00;;;;6119937;23;20202;-81
2023/06/03 03:14:07;;;;;;;2.47;1.90;;;18.20;54.00;17.30;96417.00;;;;6146415;23;20202;-81
2023/06/03 03:16:35;;;;;;;5.27;2.30;;;18.20;54.10;17.20;96422.00;;;;6120658;23;20194;-81
2023/06/03 03:19:02;;;;;;;2.93;1.87;;;18.20;54.10;17.20;96420.00;;;;6148705;23;20174;-80
2023/06/03 03:21:29;;;;;;;2.80;1.93;;;18.10;54.10;17.20;96419.00;;;;6122203;23;20170;-81
2023/06/03 03:23:58;;;;;;;3.73;1.90;;;18.10;54.20;17.20;96419.00;;;;6147309;23;20682;-81
2023/06/03 03:26:26;;;;;;;3.53;2.37;;;18.10;54.20;17.20;96420.00;;;;6093382;23;20171;-82
2023/06/03 03:28:54;;;;;;;3.67;2.03;;;18.10;54.10;17.20;96424.00;;;;6136890;23;20175;-81
2023/06/03 03:31:21;;;;;;;2.67;1.70;;;18.10;54.20;17.20;96429.00;;;;6116986;23;20175;-82
2023/06/03 03:33:50;;;;;;;6.43;2.37;;;18.10;54.30;17.20;96426.00;;;;6145156;23;20198;-81
2023/06/03 03:36:22;;;;;;;4.93;1.80;;;18.10;54.40;17.10;96425.00;;;;6145467;23;20174;-81
2023/06/03 03:39:03;;;;;;;4.83;2.03;;;18.10;54.40;17.10;96442.00;;;;6147073;23;20205;-82
2023/06/03 03:41:30;;;;;;;2.33;2.13;;;18.00;54.50;17.10;96440.00;;;;6123164;23;20159;-81
2023/06/03 03:43:59;;;;;;;3.87;1.90;;;18.00;54.50;17.10;96427.00;;;;6145307;23;20254;-82
2023/06/03 03:46:26;;;;;;;2.53;2.13;;;18.00;54.50;17.10;96432.00;;;;6110972;23;20175;-82
2023/06/03 03:48:53;;;;;;;2.73;2.00;;;18.00;54.60;17.10;96436.00;;;;6135813;23;20566;-81
2023/06/03 03:51:21;;;;;;;2.70;1.83;;;18.00;54.50;17.10;96440.00;;;;6102813;23;20214;-82
2023/06/03 03:53:50;;;;;;;2.53;1.80;;;18.00;54.50;17.10;96439.00;;;;6129239;23;20194;-82
2023/06/03 03:56:23;;;;;;;2.97;1.97;;;18.00;54.60;17.00;96442.00;;;;6127971;23;20510;-82
2023/06/03 03:58:52;;;;;;;3.23;1.83;;;18.00;54.90;17.00;96447.00;;;;6129131;23;20642;-81
2023/06/03 04:01:22;;;;;;;4.37;2.13;;;18.00;54.90;17.00;96448.00;;;;6104080;23;20171;-82
2023/06/03 04:03:51;;;;;;;2.33;1.67;;;17.90;54.90;17.00;96450.00;;;;6128451;23;20234;-82
2023/06/03 04:06:32;;;;;;;2.57;1.70;;;17.90;54.90;17.00;96455.00;;;;6129176;23;20257;-82
2023/06/03 04:09:01;;;;;;;6.47;2.47;;;17.90;55.20;17.00;96451.00;;;;6128557;23;20159;-82
2023/06/03 04:11:37;;;;;;;2.57;2.07;;;17.90;54.90;17.00;96451.00;;;;6102971;23;20206;-81
2023/06/03 04:14:10;;;;;;;3.43;1.70;;;17.90;55.20;17.00;96448.00;;;;6127929;23;20198;-82
2023/06/03 04:16:56;;;;;;;3.37;1.70;;;17.90;55.10;17.00;96448.00;;;;6128996;23;20162;-82
2023/06/03 04:19:27;;;;;;;2.47;1.97;;;17.90;56.00;17.00;96450.00;;;;6128406;23;20171;-82
2023/06/03 04:21:56;;;;;;;2.70;1.90;;;17.90;55.20;17.00;96462.00;;;;6132008;23;20237;-82
2023/06/03 04:24:23;;;;;;;3.17;2.13;;;17.90;55.10;17.00;96462.00;;;;6106056;23;20234;-81
2023/06/03 04:26:52;;;;;;;2.63;1.60;;;17.90;55.10;17.00;96468.00;;;;6059346;23;20221;-81
2023/06/03 04:29:20;;;;;;;2.87;2.17;;;17.90;55.40;17.00;96468.00;;;;6107582;23;20242;-82
2023/06/03 04:31:47;;;;;;;3.63;1.93;;;17.90;55.40;17.00;96475.00;;;;6085352;23;20179;-82
2023/06/03 04:34:16;;;;;;;4.77;2.60;;;17.90;55.50;17.00;96472.00;;;;6085257;23;20198;-82
2023/06/03 04:36:43;;;;;;;2.20;2.00;;;17.90;55.50;17.00;96468.00;;;;6107660;23;20226;-82
2023/06/03 04:39:11;;;;;;;3.63;2.30;;;17.90;55.60;17.00;96466.00;;;;6135423;23;20205;-81
2023/06/03 04:41:38;;;;;;;3.37;2.30;;;17.90;55.60;17.00;96474.00;;;;6135955;23;20210;-83
2023/06/03 04:44:08;;;;;;;5.50;2.60;;;17.90;55.60;17.00;96467.00;;;;6108235;23;20202;-82
2023/06/03 04:46:35;;;;;;;2.37;2.00;;;17.90;55.90;17.10;96471.00;;;;6084595;23;20181;-81
2023/06/03 04:49:03;;;;;;;4.87;2.00;;;17.90;55.80;17.10;96466.00;;;;6109672;23;20253;-82
2023/06/03 04:51:33;;;;;;;3.27;2.10;;;17.90;55.80;17.10;96468.00;;;;6111892;23;20643;-82
2023/06/03 04:54:03;;;;;;;3.10;2.37;;;17.90;55.90;17.10;96468.00;;;;6110420;23;20198;-83
2023/06/03 04:56:30;;;;;;;2.30;2.00;;;17.90;56.10;17.10;96459.00;;;;6136780;23;20171;-82
2023/06/03 04:59:00;;;;;;;2.40;1.90;;;17.90;56.10;17.10;96463.00;;;;6136720;23;20257;-82
2023/06/03 05:01:31;;;;;;;2.90;2.13;;;18.00;56.10;17.10;96470.00;;;;6137351;23;20631;-82
2023/06/03 05:03:59;;;;;;;2.07;1.83;;;18.00;56.90;17.10;96470.00;;;;6109839;23;20673;-82
2023/06/03 05:06:28;;;;;;;1.87;1.77;;;18.00;56.30;17.20;96469.00;;;;6137300;23;20183;-81
2023/06/03 05:08:56;;;;;;;2.20;1.90;;;18.00;56.40;17.20;96471.00;;;;6135832;23;20492;-81
2023/06/03 05:11:23;;;;;;;2.87;2.13;;;18.00;56.50;17.20;96472.00;;;;6136706;23;20179;-81
2023/06/03 05:13:51;;;;;;;2.63;1.90;;;18.00;56.70;17.20;96469.00;;;;6110967;23;20202;-83
2023/06/03 05:16:19;;;;;;;3.67;2.27;;;18.00;56.70;17.30;96469.00;;;;6137296;23;20175;-81
2023/06/03 05:18:48;;;;;;;2.93;2.27;;;18.10;56.80;17.30;96470.00;;;;6137272;23;20179;-82
2023/06/03 05:21:19;;;;;;;2.63;2.40;;;18.10;56.80;17.30;96463.00;;;;6112657;23;20198;-83
2023/06/03 05:23:46;;;;;;;4.93;2.20;;;18.10;56.80;17.30;96460.00;;;;6139867;23;20532;-82
2023/06/03 05:26:14;;;;;;;3.80;2.20;;;18.10;57.00;17.40;96469.00;;;;6114185;23;20230;-82
2023/06/03 05:28:41;;;;;;;2.63;2.43;;;18.10;57.10;17.40;96465.00;;;;6115618;23;20183;-81
2023/06/03 05:31:08;;;;;;;2.27;2.07;;;18.20;57.30;17.40;96458.00;;;;6114943;23;20186;-82
2023/06/03 05:33:36;;;;;;;3.50;2.27;;;18.20;57.30;17.50;96461.00;;;;6140932;23;20226;-81
2023/06/03 05:36:05;;;;;;;3.10;2.27;;;18.20;57.30;17.50;96464.00;;;;6115774;23;20178;-82
2023/06/03 05:38:33;;;;;;;2.50;2.10;;;18.30;57.20;17.60;96468.00;;;;6141426;23;20238;-82
2023/06/03 05:41:03;;;;;;;3.13;2.10;;;18.30;57.10;17.60;96460.00;;;;6117404;23;20198;-82
2023/06/03 05:43:30;;;;;;;3.97;2.40;;;18.30;57.00;17.60;96459.00;;;;6096779;23;20187;-82
2023/06/03 05:45:58;;;;;;;2.60;2.07;;;18.40;57.00;17.70;96466.00;;;;6120277;23;20174;-82
2023/06/03 05:48:25;;;;;;;3.07;2.43;;;18.40;57.00;17.70;96465.00;;;;6120828;23;20199;-83
2023/06/03 05:50:55;;;;;;;4.23;2.33;;;18.50;57.00;17.80;96463.00;;;;6137493;23;20185;-80
2023/06/03 05:53:26;;;;;;;2.80;2.43;;;18.50;57.00;17.80;96460.00;;;;6139517;23;20214;-82
2023/06/03 05:55:54;;;;;;;3.47;2.30;;;18.50;57.10;17.80;96467.00;;;;6114673;23;20262;-82
2023/06/03 05:58:24;;;;;;;2.80;2.17;;;18.60;57.00;17.90;96458.00;;;;6115038;23;20684;-81
2023/06/03 06:00:52;;;;;;;3.37;2.27;;;18.60;57.10;18.00;96460.00;;;;6138404;23;20314;-83
2023/06/03 06:03:22;;;;;;;3.20;2.20;;;18.60;57.10;18.00;96461.00;;;;6136673;23;20223;-82
2023/06/03 06:05:49;;;;;;;4.87;2.40;;;18.70;56.90;18.10;96464.00;;;;6132863;23;20182;-83
2023/06/03 06:08:18;;;;;;;2.90;2.43;;;18.80;57.20;18.10;96467.00;;;;6133873;23;20488;-82
2023/06/03 06:10:47;;;;;;;3.07;2.20;;;18.80;56.90;18.20;96458.00;;;;6105437;23;20194;-84
2023/06/03 06:13:14;;;;;;;4.50;2.60;;;18.90;56.90;18.30;96466.00;;;;6129414;23;20234;-83
2023/06/03 06:15:58;;;;;;;3.33;2.73;;;18.90;56.70;18.30;96467.00;;;;6128929;23;20179;-83
2023/06/03 06:18:26;;;;;;;2.50;2.30;;;19.00;57.00;18.40;96468.00;;;;6129511;23;20186;-84
2023/06/03 06:20:53;;;;;;;3.57;2.30;;;19.00;56.70;18.50;96467.00;;;;6129419;23;20175;-84
2023/06/03 06:23:21;;;;;;;3.50;2.60;;;19.10;56.70;18.50;96471.00;;;;6104174;23;20708;-84
2023/06/03 06:25:51;;;;;;;3.63;2.50;;;19.20;56.80;18.60;96471.00;;;;6105642;23;20178;-84
2023/06/03 06:28:19;;;;;;;5.07;2.60;;;19.20;56.80;18.70;96477.00;;;;6130807;23;20565;-83
2023/06/03 06:30:47;;;;;;;4.53;2.57;;;19.30;56.60;18.70;96472.00;;;;6130649;23;20175;-84
2023/06/03 06:33:16;;;;;;;2.60;2.20;;;19.40;56.40;18.80;96474.00;;;;6130696;23;20195;-85
2023/06/03 06:35:44;;;;;;;5.60;2.73;;;19.40;56.50;18.90;96480.00;;;;6129747;23;20182;-84
2023/06/03 06:38:12;;;;;;;3.70;2.80;;;19.50;56.40;18.90;96480.00;;;;6101640;23;20702;-84
2023/06/03 06:40:40;;;;;;;2.77;2.10;;;19.60;56.30;19.00;96479.00;;;;6083127;23;20178;-82
2023/06/03 06:43:13;;;;;;;3.20;2.60;;;19.60;56.20;19.10;96491.00;;;;6131492;23;20174;-84
2023/06/03 06:45:40;;;;;;;2.93;2.20;;;19.70;56.10;19.20;96489.00;;;;6136654;23;20202;-84
2023/06/03 06:48:10;;;;;;;2.80;2.33;;;19.70;56.00;19.20;96492.00;;;;6113980;23;20242;-82
2023/06/03 06:50:49;;;;;;;4.23;2.23;;;19.80;55.90;19.30;96485.00;;;;6141701;23;20202;-84
2023/06/03 06:53:19;;;;;;;3.13;2.30;;;19.90;56.00;19.40;96496.00;;;;6141992;23;20189;-86
2023/06/03 06:55:51;;;;;;;2.50;2.10;;;20.00;56.00;19.50;96489.00;;;;6119392;23;20170;-83
2023/06/03 06:58:21;;;;;;;4.40;2.30;;;20.10;55.70;19.60;96478.00;;;;6144698;23;20235;-84
2023/06/03 07:00:50;;;;;;;3.27;2.60;;;20.10;55.60;19.70;96480.00;;;;6138895;23;20176;-82
2023/06/03 07:03:20;;;;;;;2.77;2.27;;;20.20;55.50;19.80;96479.00;;;;6140310;23;20594;-84
2023/06/03 07:05:52;;;;;;;2.53;2.33;;;20.30;55.50;20.00;96486.00;;;;6113317;23;20189;-82
2023/06/03 07:08:20;;;;;;;4.20;2.30;;;20.40;55.30;20.10;96479.00;;;;6111288;23;20163;-82
2023/06/03 07:10:47;;;;;;;3.40;2.67;;;20.60;55.30;20.20;96492.00;;;;6110590;23;20181;-82
2023/06/03 07:13:16;;;;;;;3.10;2.50;;;20.70;55.30;20.40;96477.00;;;;6095801;23;20206;-83
2023/06/03 07:15:45;;;;;;;2.53;2.27;;;20.80;55.10;20.50;96496.00;;;;6100466;23;20260;-82
2023/06/03 07:18:13;;;;;;;4.30;2.83;;;21.00;55.00;20.70;96492.00;;;;6097804;23;20181;-84
2023/06/03 07:20:43;;;;;;;3.03;2.50;;;21.10;54.90;20.80;96502.00;;;;6111072;23;20171;-83
2023/06/03 07:23:13;;;;;;;2.53;2.33;;;21.30;54.80;20.90;96494.00;;;;6100731;23;20199;-84
2023/06/03 07:25:45;;;;;;;3.50;2.33;;;21.40;54.60;21.10;96499.00;;;;6099905;23;20706;-83
2023/06/03 07:28:16;;;;;;;2.50;2.30;;;21.50;54.60;21.30;96502.00;;;;6104673;23;20242;-83
2023/06/03 07:30:52;;;;;;;3.67;2.20;;;21.70;54.50;21.40;96506.00;;;;6102566;23;20259;-83
2023/06/03 07:33:51;;;;;;;3.60;1.97;;;21.80;54.10;21.50;96503.00;;;;6107705;23;20219;-83
2023/06/03 07:36:20;;;;;;;2.63;2.37;;;22.00;53.90;21.70;96510.00;;;;6102512;23;20159;-83
2023/06/03 07:39:04;;;;;;;3.10;2.60;;;22.20;53.70;21.80;96503.00;;;;6104373;23;20171;-83
2023/06/03 07:41:50;;;;;;;2.93;2.37;;;22.30;53.30;22.00;96509.00;;;;6101680;23;20182;-83
2023/06/03 07:44:35;;;;;;;3.53;2.47;;;22.40;52.80;22.10;96515.00;;;;6100401;23;20485;-81
2023/06/03 07:47:04;;;;;;;2.60;2.20;;;22.60;52.90;22.30;96517.00;;;;6108789;23;20190;-83
2023/06/03 07:49:33;;;;;;;2.03;1.90;;;22.70;52.80;22.40;96513.00;;;;6104408;23;20179;-82
2023/06/03 07:52:01;;;;;;;2.33;2.10;;;22.80;52.60;22.60;96517.00;;;;6099410;23;20172;-83
2023/06/03 07:54:30;;;;;;;2.00;1.60;;;22.90;52.40;22.70;96518.00;;;;6101056;23;20219;-82
2023/06/03 07:56:59;;;;;;;3.83;2.33;;;23.10;52.00;22.80;96522.00;;;;6050168;23;20172;-83
2023/06/03 07:59:26;;;;;;;2.43;2.00;;;23.20;52.00;22.90;96526.00;;;;6098691;23;20491;-82
2023/06/03 08:01:53;;;;;;;2.23;1.97;;;23.40;51.80;23.10;96533.00;;;;6099379;23;20223;-82
2023/06/03 08:04:39;;;;;;;2.47;2.23;;;23.50;51.60;23.20;96526.00;;;;6099152;23;20701;-83
2023/06/03 08:07:07;;;;;;;1.90;1.70;;;23.60;51.10;23.30;96530.00;;;;6124428;23;20230;-82
2023/06/03 08:09:36;;;;;;;2.40;1.83;;;23.70;51.30;23.50;96525.00;;;;6129950;23;20180;-82
2023/06/03 08:12:08;;;;;;;2.00;1.80;;;23.90;51.10;23.60;96517.00;;;;6131156;23;20204;-84
2023/06/03 08:14:38;;;;;;;3.17;1.80;;;24.00;50.80;23.70;96523.00;;;;6080279;23;20237;-82
2023/06/03 08:17:10;;;;;;;2.07;1.60;;;24.10;50.60;23.90;96527.00;;;;6107613;23;20193;-83
2023/06/03 08:19:40;;;;;;;2.60;1.67;;;24.30;50.40;24.00;96533.00;;;;6130963;23;20173;-84
2023/06/03 08:22:33;;;;;;;3.53;1.90;;;24.40;50.20;24.10;96529.00;;;;6131792;23;20215;-85
2023/06/03 08:25:01;;;;;;;3.03;1.90;;;24.50;49.80;24.30;96538.00;;;;6132315;23;20225;-83
2023/06/03 08:27:28;;;;;;;2.60;2.13;;;24.70;49.70;24.40;96535.00;;;;6131145;23;20174;-82
2023/06/03 08:29:57;;;;;;;2.27;2.07;;;24.80;49.60;24.50;96542.00;;;;6106063;23;20233;-83
2023/06/03 08:32:24;;;;;;;1.87;1.77;;;24.90;49.40;24.60;96537.00;;;;6130757;23;20167;-84
2023/06/03 08:34:53;;;;;;;1.70;1.60;;;25.00;49.10;24.80;96544.00;;;;6130369;23;20712;-83
2023/06/03 08:37:20;;;;;;;2.90;1.93;;;25.10;48.90;24.90;96540.00;;;;6104485;23;20245;-83
2023/06/03 08:39:48;;;;;;;1.70;1.60;;;25.20;48.90;25.00;96544.00;;;;6130535;23;20190;-84
2023/06/03 08:42:23;;;;;;;1.70;1.60;;;25.40;48.60;25.10;96541.00;;;;6129334;23;20656;-84
2023/06/03 08:45:03;;;;;;;2.17;1.80;;;25.50;48.20;25.30;96547.00;;;;6129046;23;20230;-83
2023/06/03 08:47:41;;;;;;;2.63;1.73;;;25.60;47.90;25.40;96540.00;;;;6131583;23;20159;-83
2023/06/03 08:50:12;;;;;;;3.97;2.17;;;25.80;48.00;25.60;96543.00;;;;6131999;23;20159;-84
2023/06/03 08:52:40;;;;;;;1.87;1.70;;;25.90;47.90;25.70;96542.00;;;;6105224;23;20174;-82
2023/06/03 08:55:12;;;;;;;4.03;2.00;;;26.00;47.70;25.80;96539.00;;;;6103943;23;20202;-82
2023/06/03 08:57:46;;;;;;;2.03;1.53;;;26.20;47.50;26.00;96532.00;;;;6129626;23;20238;-83
2023/06/03 09:00:18;;;;;;;1.80;1.70;;;26.30;47.20;26.10;96543.00;;;;6129347;23;20720;-83
2023/06/03 09:02:46;;;;;;;2.13;1.67;;;26.40;47.30;26.30;96542.00;;;;6103938;23;20163;-83
2023/06/03 09:05:17;;;;;;;2.23;1.90;;;26.60;47.10;26.40;96549.00;;;;6104498;23;20214;-83
2023/06/03 09:07:47;;;;;;;2.10;1.87;;;26.70;47.00;26.50;96548.00;;;;6131161;23;20245;-84
2023/06/03 09:10:16;;;;;;;4.17;1.83;;;26.80;46.70;26.60;96538.00;;;;6131100;23;20166;-83
2023/06/03 09:12:45;;;;;;;2.50;1.67;;;26.90;46.70;26.80;96545.00;;;;6136817;23;20185;-84
2023/06/03 09:15:15;;;;;;;2.07;1.70;;;27.10;46.40;26.90;96537.00;;;;6110280;23;20205;-84
2023/06/03 09:17:42;;;;;;;3.67;1.97;;;27.20;46.50;27.00;96541.00;;;;6135244;23;20257;-84
2023/06/03 09:20:11;;;;;;;4.27;2.00;;;27.30;46.20;27.20;96541.00;;;;6105494;23;20564;-84
2023/06/03 09:22:46;;;;;;;1.77;1.60;;;27.50;46.00;27.30;96543.00;;;;6126380;23;20178;-83
2023/06/03 09:25:14;;;;;;;2.45;2.08;;;27.60;45.70;27.50;96544.00;;;;6126509;23;20205;-84
2023/06/03 09:27:42;;;;;;;2.93;1.93;;;27.80;45.70;27.60;96534.00;;;;6100541;23;20198;-84
2023/06/03 09:30:10;;;;;;;3.05;1.80;;;27.90;45.40;27.80;96541.00;;;;6125746;23;20257;-84
2023/06/03 09:32:39;;;;;;;3.15;1.70;;;28.10;46.00;27.90;96534.00;;;;6099788;23;20565;-84
2023/06/03 09:35:08;;;;;;;2.28;2.00;;;28.30;45.30;28.10;96539.00;;;;6099981;23;20261;-85
2023/06/03 09:37:36;;;;;;;1.95;1.75;;;28.50;44.80;28.30;96534.00;;;;6125911;23;20522;-84
2023/06/03 09:40:25;;;;;;;3.17;1.83;;;28.70;44.80;28.40;96537.00;;;;6126482;23;20249;-84
2023/06/03 09:42:52;;;;;;;6.47;1.70;;;28.90;44.50;28.60;96540.00;;;;6100513;23;20570;-84
2023/06/03 09:45:29;;;;;;;1.70;1.60;;;29.10;44.60;28.80;96542.00;;;;6125876;23;20202;-85
2023/06/03 09:47:57;;;;;;;2.65;1.65;;;29.40;43.90;28.90;96542.00;;;;6124885;23;20170;-85
2023/06/03 09:50:27;;;;;;;2.13;1.60;;;29.60;43.60;29.10;96550.00;;;;6125206;23;20174;-85
2023/06/03 09:52:55;;;;;;;1.85;1.75;;;29.80;43.40;29.30;96543.00;;;;6125161;23;20642;-85
2023/06/03 09:55:32;;;;;;;1.98;1.80;;;30.00;43.00;29.50;96543.00;;;;6125446;23;20293;-83
2023/06/03 09:58:05;;;;;;;1.60;1.50;;;30.30;42.20;29.60;96551.00;;;;6100451;23;20155;-84
2023/06/03 10:00:46;;;;;;;1.67;1.58;;;30.50;42.20;29.80;96538.00;;;;6125949;23;20518;-84
2023/06/03 10:03:13;;;;;;;1.77;1.52;;;30.70;41.80;30.00;96559.00;;;;6126358;23;20190;-84
2023/06/03 10:05:41;;;;;;;2.33;1.75;;;30.90;41.70;30.10;96557.00;;;;6125752;23;20190;-85
2023/06/03 10:08:09;;;;;;;1.50;1.40;;;31.10;41.30;30.20;96554.00;;;;6100749;23;20225;-85
2023/06/03 10:10:56;;;;;;;1.48;1.38;;;31.20;41.00;30.30;96559.00;;;;6076073;23;20202;-84
2023/06/03 10:13:25;;;;;;;4.53;1.60;;;31.40;40.10;30.40;96555.00;;;;6100154;23;20191;-85
2023/06/03 10:15:53;;;;;;;2.55;1.45;;;31.50;40.80;30.60;96561.00;;;;6124913;23;20602;-84
2023/06/03 10:18:49;;;;;;;1.42;1.27;;;31.60;40.40;30.70;96560.00;;;;6099721;23;20257;-85
2023/06/03 10:21:17;;;;;;;1.30;1.20;;;31.80;39.40;30.80;96560.00;;;;6125613;23;20175;-84
2023/06/03 10:23:44;;;;;;;1.60;1.30;;;31.90;40.10;30.90;96561.00;;;;6125689;23;20274;-84
2023/06/03 10:26:13;;;;;;;3.05;1.45;;;32.00;39.90;31.00;96558.00;;;;6125656;23;20198;-85
2023/06/03 10:28:41;;;;;;;1.80;1.70;;;32.00;39.20;31.10;96556.00;;;;6100719;23;20170;-85
2023/06/03 10:31:12;;;;;;;1.98;1.88;;;32.10;39.20;31.20;96552.00;;;;6126544;23;20202;-84
2023/06/03 10:33:41;;;;;;;3.17;1.63;;;32.10;39.00;31.20;96548.00;;;;6126793;23;20226;-84
2023/06/03 10:36:09;;;;;;;1.77;1.60;;;32.10;38.90;31.20;96543.00;;;;6101539;23;20597;-84
2023/06/03 10:38:40;;;;;;;2.92;1.45;;;32.10;38.90;31.20;96553.00;;;;6101567;23;20230;-84
2023/06/03 10:41:12;;;;;;;2.95;1.55;;;32.10;38.60;31.30;96545.00;;;;6078110;23;20182;-85
2023/06/03 10:43:44;;;;;;;1.77;1.65;;;32.10;38.80;31.30;96548.00;;;;6076838;23;20194;-84
2023/06/03 10:46:13;;;;;;;2.55;1.83;;;32.10;38.60;31.30;96546.00;;;;6100796;23;20159;-86
2023/06/03 10:48:46;;;;;;;2.55;1.55;;;32.00;38.20;31.30;96541.00;;;;6076427;23;20202;-83
2023/06/03 10:51:41;;;;;;;1.60;1.48;;;31.90;38.10;31.20;96543.00;;;;6126099;23;20626;-85
2023/06/03 10:54:30;;;;;;;1.88;1.67;;;31.90;37.60;31.10;96541.00;;;;6126348;23;20191;-84
2023/06/03 10:57:06;;;;;;;3.15;1.38;;;31.80;37.80;31.10;96533.00;;;;6127166;23;20239;-85
2023/06/03 10:59:44;;;;;;;2.97;1.92;;;31.70;38.30;30.90;96541.00;;;;6104517;23;20155;-85
2023/06/03 11:02:11;;;;;;;1.67;1.58;;;31.50;37.50;30.80;96542.00;;;;6079333;23;20241;-84
2023/06/03 11:04:41;;;;;;;1.90;1.60;;;31.40;37.70;30.60;96532.00;;;;6130439;23;20302;-84
2023/06/03 11:07:45;;;;;;;3.47;1.98;;;31.30;37.80;30.40;96532.00;;;;6130427;23;20243;-83
2023/06/03 11:10:40;;;;;;;1.73;1.40;;;31.10;37.50;30.10;96532.00;;;;6103812;23;20242;-83